Impacts TAF Board
For situational awareness. Not to be used for flight planning purposes.
IDs:

KFLL - Ft Lauderdale-Hollyw, FL, US

Issued at 2334 UTC 21 Sep 2021
Updated at 2352 UTC 21 Sep 2021
Potential Impact None Slight Moderate High
Time2343Z 22/00Z 22/01Z 22/02Z 22/03Z 22/04Z 22/05Z 22/06Z 22/07Z 22/08Z 22/09Z 22/10Z 22/11Z 22/12Z>>
Type OBS PRVL
  [TEMP]  
PRVL
  [TEMP]  
PRVL PRVL PRVL PRVL PRVL PRVL PRVL PRVL PRVL PRVL PRVL
VIS 10 >6
  [3]  
>6
  [3]  
>6 >6 >6 >6 >6 >6 >6 >6 >6 >6 >6
CIG 130 50
  [25]  
50
  [25]  
50 -- -- -- -- -- -- -- -- -- --
Cover OVC BKN
  [BKN]  
BKN
  [BKN]  
BKN SCT SCT SCT SCT SCT SCT SCT SCT SCT SCT
FltCat VFR VFR
  [MVFR]  
VFR
  [MVFR]  
VFR VFR VFR VFR VFR VFR VFR VFR VFR VFR VFR
WX TS VCTS
  [TSRA]  
VCTS
  [TSRA]  
VCTS -- -- -- -- -- -- -- VCSH VCSH VCSH
WDir 320 350
[VRB]
350
[VRB]
350 VRB VRB VRB VRB VRB VRB VRB 120 120 120
WSpd 4 6
  [15]  
6
  [15]  
6 4 4 4 4 4 4 4 7 7 7
WGst -- --
  [25]  
--
  [25]  
-- -- -- -- -- -- -- -- -- -- --
Raw TAF
KFLL 212334Z 2200/2306 35006KT P6SM VCTS SCT025CB BKN050
  TEMPO 2200/2202 VRB15G25KT 3SM TSRA SCT015 BKN025CB
  FM220300 VRB04KT P6SM FEW025 SCT250
  FM221000 12007KT P6SM VCSH SCT025 SCT050
  FM221500 16010KT P6SM VCTS SCT025CB BKN050
  FM230200 VRB04KT P6SM FEW025 SCT250


Raw METAR
KFLL 212343Z 32004KT 10SM TS FEW013 FEW022CB BKN130 OVC200 26/24 A3000 RMK AO2 TSB43 OCNL LTGICCG S TS S MOV NW T02560239
KFLL 212325Z 34005KT 10SM FEW021 BKN130 OVC190 26/24 A3000 RMK AO2 CB DSNT E AND SE MOV NW T02610244
KFLL 212310Z 02004KT 10SM VCTS FEW021 BKN130 OVC190 26/24 A3000 RMK AO2 LTG DSNT E AND SE CB DSNT E AND SE MOV NW T02610244
KFLL 212253Z 01004KT 10SM FEW017 FEW025CB SCT110 OVC190 26/24 A2999 RMK AO2 LTG DSNT E AND SE TSB10E25 SLP155 CB NE MOV STNRY T02610244
KFLL 212231Z 02004KT 10SM FEW021TCU SCT110 OVC190 26/24 A3000 RMK AO2 LTG DSNT SE AND S TSB10E25 CB DSNT SE-S MOV W TCU NE AND E T02610244
KFLL 212210Z COR 32004KT 10SM TS FEW021TCU SCT110 OVC190 26/24 A3000 RMK AO2 LTG DSNT SE AND S TSB10 CB DSNT SE-S MOV W TCU NE AND E T02610239
KFLL 212153Z 33003KT 10SM FEW022 SCT100 OVC190 26/23 A3000 RMK AO2 LTG DSNT S-NW TSE20 SLP157 CB DSNT NW MOV NW T02610233
KFLL 212141Z 31005KT 10SM FEW021 BKN150 OVC200 26/23 A3000 RMK AO2 LTG DSNT NW TSE20 CB DSNT W AND NW MOV NW T02610233
KFLL 212126Z 30008KT 10SM VCTS FEW016 SCT022 BKN150 OVC200 26/23 A3001 RMK AO2 LTG DSNT W AND NW TSE20 CB DSNT W AND NW MOV NW T02610233
KFLL 212118Z 31006KT 10SM FEW017 SCT022 BKN055 BKN150 OVC200 27/24 A3001 RMK AO2 LTG DSNT W AND NW CB DSNT W AND NW MOV NW T02670239
KFLL 212053Z 34004KT 10SM SCT017 BKN025CB BKN130 OVC200 27/24 A3000 RMK AO2 TSE43 SLP157 CB NW MOV N T02670239 55003
KFLL 212044Z 30004KT 10SM SCT017 BKN025CB BKN130 OVC200 27/24 A3000 RMK AO2 TSE43 CB NW MOV NW T02670239
KFLL 212032Z 28004KT 10SM TS SCT015 BKN025CB BKN130 OVC200 27/24 A3000 RMK AO2 LTG DSNT W OCNL LTGICCG W-NW TS W-NW MOV NW T02670239

METAR Board
Radar Display
Forecast Discussion
For situational awareness. Not to be used for flight planning purposes.